CheckWX is a tool to help pilots better visualize weather data.  It is not intended as a substitute for an official pre-flight weather briefing.

21:31:53 UTC

KTQH METAR
Tahlequah Municipal Airport
Tahlequah, Oklahoma, USA
Current

17 mins ago

KTQH 222115Z AUTO 27009G17KT 10SM CLR 19/01 A3011 RMK AO2
Observed
Oct-22 @ 21:15 UTC
Wind
  • 270° at 9 KTS
  • Gusting to 17 KTS
Visibility
10 SM
Flight Rules
VFR
Cloud Levels
  • Clear skies
Temperature
19°C / 66°F
Dewpoint
C / 34°F
Humidity
30%
Altimeter
30.11" Hg
Pressure
1019.62 hPa
Previous

37 mins ago

KTQH 222055Z AUTO 27015G20KT 10SM CLR 19/01 A3011 RMK AO2
Observed
Oct-22 @ 20:55 UTC
Wind
  • 270° at 15 KTS
  • Gusting to 20 KTS
Visibility
10 SM
Flight Rules
VFR
Cloud Levels
  • Clear skies
Temperature
19°C / 66°F
Dewpoint
C / 34°F
Humidity
30%
Altimeter
30.11" Hg
Pressure
1019.62 hPa
Previous

57 mins ago

KTQH 222035Z AUTO 26013G19KT 10SM CLR 19/01 A3011 RMK AO2
Observed
Oct-22 @ 20:35 UTC
Wind
  • 260° at 13 KTS
  • Gusting to 19 KTS
Visibility
10 SM
Flight Rules
VFR
Cloud Levels
  • Clear skies
Temperature
19°C / 66°F
Dewpoint
C / 34°F
Humidity
30%
Altimeter
30.11" Hg
Pressure
1019.62 hPa